首页
METAR-TAF:

METAR-TAF

机场 :

克拉克斯堡, 西維吉尼亞州, 美国

纬度: 39-18-00N, 经度: 080-13-29W, 海拔: 366米

当前天气观测

该预报发布于28分钟前的04:53 UTC
风速3节,风向西转西北
温度 2°C
湿度 75%
气压 1014 hPa
能見度: 16.1公里
少量云层高于1800英尺
阴天层高于2500英尺

METAR: KCKB 280453Z AUTO 29003KT 10SM FEW018 OVC025 02/M02 A2993 RMK AO2 SLP139 T00221017 400390022

时间: 00:21 (05:21 UTC)

预报

该预报发布于2小时和20分钟前的03:01 UTC
预报有效从28日的 03点(UTC)到 28日的 24点(UTC)
风速5节,风向西转西北
能見度: 10公里
阴天层高于1500英尺
从 28日的 1700点(UTC)
风速8节,风向西
能見度: 10公里
阴天层高于1500英尺

TAF: KCKB 280301Z 2803/2824 29005KT P6SM OVC015 FM281700 26008KT P6SM OVC015

超过4000个机场的气象观测和天气预报(METAR&TAF报告)。

可查询的气象台以黄色和红色小点在地图上表示。

将鼠标移到小点上方,可查看气象台名称。

然后点击查看天气观测和预报。

如需切换地图:点击带黑十字的绿色按钮放大地图;点击带横线的绿色按钮缩小地图;或者点击绿色箭头查看邻近地区的地图。


METAR-TAF: